createdAt,value
2023-06-09T00:00:47.251Z,74.09
2023-06-09T00:03:17.731Z,74.17
2023-06-09T00:05:48.171Z,74.22
2023-06-09T00:08:16.639Z,74.37
2023-06-09T00:10:44.746Z,74.23
2023-06-09T00:13:12.942Z,74.27
2023-06-09T00:15:41.046Z,74.32
2023-06-09T00:18:10.793Z,74.56
2023-06-09T00:20:39.917Z,74.41
2023-06-09T00:23:09.213Z,74.66
2023-06-09T00:25:37.364Z,74.30
2023-06-09T00:28:05.868Z,74.66
2023-06-09T00:30:39.669Z,74.74
2023-06-09T00:33:09.989Z,74.85
2023-06-09T00:35:38.176Z,75.06
2023-06-09T00:38:06.330Z,75.14
2023-06-09T00:40:34.547Z,75.11
2023-06-09T00:43:02.924Z,75.38
2023-06-09T00:45:31.107Z,75.28
2023-06-09T00:47:59.253Z,75.28
2023-06-09T00:50:28.909Z,75.36
2023-06-09T00:52:58.279Z,75.39
2023-06-09T00:55:28.038Z,75.54
2023-06-09T00:57:58.211Z,75.50
2023-06-09T01:00:28.310Z,75.59
2023-06-09T01:03:01.915Z,75.59
2023-06-09T01:05:33.923Z,75.27
2023-06-09T01:08:08.815Z,75.67
2023-06-09T01:10:43.327Z,75.78
2023-06-09T01:13:17.843Z,75.74
2023-06-09T01:15:54.271Z,75.71
2023-06-09T01:18:26.528Z,75.93
2023-06-09T01:21:07.659Z,75.89
2023-06-09T01:23:45.851Z,75.79
2023-06-09T01:26:17.187Z,75.57
2023-06-09T01:28:48.091Z,75.77
2023-06-09T01:31:17.423Z,75.82
2023-06-09T01:33:46.754Z,75.91
2023-06-09T01:36:16.704Z,75.95
2023-06-09T01:38:45.776Z,75.84
2023-06-09T01:41:15.337Z,76.03
2023-06-09T01:43:43.448Z,75.98
2023-06-09T01:46:11.630Z,76.18
2023-06-09T01:48:58.752Z,76.22
2023-06-09T01:51:36.956Z,76.16
2023-06-09T01:54:10.262Z,76.33
2023-06-09T01:56:45.059Z,76.22
2023-06-09T01:59:17.959Z,76.38
2023-06-09T02:01:48.753Z,76.28
2023-06-09T02:04:19.426Z,76.45
2023-06-09T02:06:48.922Z,76.36
2023-06-09T02:09:17.589Z,76.34
2023-06-09T02:11:53.391Z,76.26
2023-06-09T02:14:21.843Z,76.36
2023-06-09T02:16:54.469Z,76.26
2023-06-09T02:19:23.519Z,76.25
2023-06-09T02:21:51.612Z,76.19
2023-06-09T02:24:19.826Z,75.98
2023-06-09T02:26:52.624Z,76.07
2023-06-09T02:29:20.822Z,75.73
2023-06-09T02:31:49.011Z,76.11
2023-06-09T02:34:17.234Z,75.96
2023-06-09T02:36:45.848Z,75.82
2023-06-09T02:39:15.992Z,75.92
2023-06-09T02:41:44.133Z,75.74
2023-06-09T02:44:13.664Z,75.89
2023-06-09T02:46:41.808Z,75.63
2023-06-09T02:49:10.093Z,75.94
2023-06-09T02:51:38.546Z,75.59
2023-06-09T02:54:06.913Z,75.55
2023-06-09T02:56:35.044Z,75.70
2023-06-09T02:59:03.784Z,75.65
2023-06-09T03:01:36.344Z,75.84
2023-06-09T03:04:07.278Z,75.79
2023-06-09T03:06:36.682Z,75.63
2023-06-09T03:09:05.121Z,75.65
2023-06-09T03:11:33.338Z,75.39
2023-06-09T03:14:01.454Z,75.47
2023-06-09T03:16:30.063Z,75.27
2023-06-09T03:18:59.605Z,75.24
2023-06-09T03:21:27.674Z,75.07
2023-06-09T03:23:55.855Z,75.21
2023-06-09T03:26:25.191Z,74.63
2023-06-09T03:28:54.365Z,74.56
2023-06-09T03:31:23.900Z,74.60
2023-06-09T03:33:52.154Z,74.51
2023-06-09T03:36:23.641Z,74.37
2023-06-09T03:38:52.004Z,74.23
2023-06-09T03:41:20.125Z,74.05
2023-06-09T03:43:48.408Z,73.92
2023-06-09T03:46:16.603Z,73.81
2023-06-09T03:48:44.898Z,73.87
2023-06-09T03:51:13.081Z,73.91
2023-06-09T03:53:42.590Z,73.81
2023-06-09T03:56:11.127Z,73.78
2023-06-09T03:58:39.360Z,73.72
2023-06-09T04:01:11.725Z,73.87
2023-06-09T04:03:40.100Z,73.61
2023-06-09T04:06:08.399Z,73.70
2023-06-09T04:08:37.538Z,73.65
2023-06-09T04:11:06.993Z,73.64
2023-06-09T04:13:36.211Z,73.65
2023-06-09T04:16:04.420Z,73.57
2023-06-09T04:18:32.548Z,73.60
2023-06-09T04:21:00.969Z,73.52
2023-06-09T04:23:29.194Z,73.61
2023-06-09T04:25:57.405Z,73.60
2023-06-09T04:28:28.905Z,73.60
2023-06-09T04:30:58.597Z,73.61
2023-06-09T04:33:27.786Z,73.83
2023-06-09T04:35:56.249Z,73.68
2023-06-09T04:38:25.318Z,73.85
2023-06-09T04:40:53.409Z,74.06
2023-06-09T04:43:26.669Z,74.00
2023-06-09T04:45:58.315Z,74.01
2023-06-09T04:48:26.882Z,74.21
2023-06-09T04:50:55.033Z,74.29
2023-06-09T04:53:23.083Z,74.17
2023-06-09T04:55:53.205Z,74.37
2023-06-09T04:58:21.276Z,74.55
2023-06-09T05:00:49.920Z,74.79
2023-06-09T05:03:19.653Z,74.76
2023-06-09T05:05:48.173Z,74.89
2023-06-09T05:08:16.319Z,75.00
2023-06-09T05:10:44.482Z,75.05
2023-06-09T05:13:12.552Z,75.17
2023-06-09T05:15:43.164Z,75.29
2023-06-09T05:18:11.395Z,75.37
2023-06-09T05:20:40.864Z,75.27
2023-06-09T05:23:09.638Z,75.57
2023-06-09T05:25:38.574Z,75.50
2023-06-09T05:28:06.722Z,75.41
2023-06-09T05:30:34.836Z,75.56
2023-06-09T05:33:03.199Z,75.71
2023-06-09T05:35:31.342Z,75.46
2023-06-09T05:38:00.700Z,75.69
2023-06-09T05:40:28.831Z,75.67
2023-06-09T05:42:56.910Z,75.74
2023-06-09T05:45:25.117Z,75.65
2023-06-09T05:47:53.284Z,75.61
2023-06-09T05:50:21.576Z,75.70
2023-06-09T05:52:49.694Z,75.46
2023-06-09T05:55:19.447Z,75.31
2023-06-09T05:57:47.561Z,75.26
2023-06-09T06:00:16.799Z,75.54
2023-06-09T06:02:46.148Z,75.16
2023-06-09T06:05:15.126Z,75.04
2023-06-09T06:07:43.382Z,75.01
2023-06-09T06:10:12.058Z,74.81
2023-06-09T06:12:43.151Z,74.61
2023-06-09T06:15:13.850Z,74.61
2023-06-09T06:17:42.715Z,74.62
2023-06-09T06:20:13.147Z,74.33
2023-06-09T06:22:42.684Z,74.40
2023-06-09T06:25:14.645Z,74.26
2023-06-09T06:27:46.275Z,74.26
2023-06-09T06:30:16.926Z,74.03
2023-06-09T06:32:51.555Z,74.15
2023-06-09T06:35:27.520Z,74.15
2023-06-09T06:37:56.124Z,74.11
2023-06-09T06:40:24.484Z,73.93
2023-06-09T06:42:54.072Z,73.96
2023-06-09T06:45:23.745Z,73.95
2023-06-09T06:47:52.846Z,73.75
2023-06-09T06:50:24.723Z,73.61
2023-06-09T06:52:54.021Z,73.59
2023-06-09T06:55:22.165Z,73.50
2023-06-09T06:57:50.288Z,73.54
2023-06-09T07:00:20.425Z,73.48
2023-06-09T07:02:49.380Z,73.49
2023-06-09T07:05:18.763Z,73.41
2023-06-09T07:07:47.120Z,73.35
2023-06-09T07:10:16.489Z,73.36
2023-06-09T07:12:44.754Z,73.22
2023-06-09T07:15:15.860Z,73.26
2023-06-09T07:17:45.715Z,73.25
2023-06-09T07:20:14.091Z,73.19
2023-06-09T07:22:42.821Z,73.18
2023-06-09T07:25:11.714Z,73.25
2023-06-09T07:27:40.134Z,73.34
2023-06-09T07:30:10.977Z,73.40
2023-06-09T07:32:42.593Z,73.43
2023-06-09T07:35:13.936Z,73.43
2023-06-09T07:37:43.617Z,73.32
2023-06-09T07:40:20.367Z,73.65
2023-06-09T07:42:50.099Z,73.56
2023-06-09T07:45:18.545Z,73.64
2023-06-09T07:47:46.879Z,73.70
2023-06-09T07:50:16.757Z,73.79
2023-06-09T07:52:44.878Z,73.86
2023-06-09T07:55:15.634Z,73.90
2023-06-09T07:57:45.032Z,73.97
2023-06-09T08:00:15.059Z,73.95
2023-06-09T08:02:44.454Z,73.95
2023-06-09T08:05:13.052Z,73.91
2023-06-09T08:07:42.592Z,73.99
2023-06-09T08:10:11.594Z,73.96
2023-06-09T08:12:40.200Z,74.20
2023-06-09T08:15:12.405Z,74.05
2023-06-09T08:17:41.135Z,74.02
2023-06-09T08:20:10.198Z,74.14
2023-06-09T08:22:38.492Z,74.22
2023-06-09T08:25:12.619Z,74.20
2023-06-09T08:27:40.817Z,74.27
2023-06-09T08:30:10.418Z,74.01
2023-06-09T08:32:40.810Z,74.17
2023-06-09T08:35:09.814Z,74.37
2023-06-09T08:37:38.519Z,74.35
2023-06-09T08:40:10.029Z,74.32
2023-06-09T08:42:40.565Z,74.49
2023-06-09T08:45:10.217Z,74.51
2023-06-09T08:47:45.809Z,74.75
2023-06-09T08:50:17.696Z,74.64
2023-06-09T08:52:46.606Z,74.79
2023-06-09T08:55:15.578Z,74.86
2023-06-09T08:57:45.170Z,74.93
2023-06-09T09:00:14.243Z,74.56
2023-06-09T09:02:44.382Z,74.98
2023-06-09T09:05:12.645Z,74.88
2023-06-09T09:07:46.263Z,74.89
2023-06-09T09:10:14.627Z,74.88
2023-06-09T09:12:51.848Z,74.97
2023-06-09T09:15:20.738Z,75.03
2023-06-09T09:17:49.683Z,75.06
2023-06-09T09:20:18.243Z,75.05
2023-06-09T09:22:48.518Z,75.19
2023-06-09T09:25:23.766Z,75.48
2023-06-09T09:28:07.470Z,75.21
2023-06-09T09:30:49.594Z,75.43
2023-06-09T09:33:21.733Z,75.26
2023-06-09T09:35:51.869Z,75.11
2023-06-09T09:38:22.234Z,74.96
2023-06-09T09:40:52.378Z,74.88
2023-06-09T09:43:23.119Z,74.99
2023-06-09T09:45:53.465Z,75.11
2023-06-09T09:48:24.294Z,75.22
2023-06-09T09:50:54.388Z,75.05
2023-06-09T09:53:23.595Z,75.25
2023-06-09T09:55:54.578Z,75.10
2023-06-09T09:58:31.439Z,75.02
2023-06-09T10:01:02.022Z,75.11
2023-06-09T10:03:30.657Z,75.45
2023-06-09T10:06:03.036Z,75.45
2023-06-09T10:08:32.570Z,75.39
2023-06-09T10:11:02.249Z,75.43
2023-06-09T10:13:31.971Z,75.24
2023-06-09T10:16:00.964Z,75.40
2023-06-09T10:18:29.290Z,75.23
2023-06-09T10:20:57.907Z,75.43
2023-06-09T10:23:26.562Z,75.28
2023-06-09T10:25:54.664Z,75.00
2023-06-09T10:28:22.966Z,75.16
2023-06-09T10:30:52.746Z,75.32
2023-06-09T10:33:24.177Z,74.98
2023-06-09T10:35:57.475Z,75.07
2023-06-09T10:38:29.660Z,75.17
2023-06-09T10:41:10.959Z,74.95
2023-06-09T10:44:08.397Z,74.92
2023-06-09T10:46:43.489Z,75.12
2023-06-09T10:49:37.808Z,75.05
2023-06-09T10:52:07.091Z,75.01
2023-06-09T10:54:36.777Z,74.82
2023-06-09T10:57:08.008Z,74.76
2023-06-09T11:00:17.572Z,75.03
2023-06-09T11:02:54.837Z,74.89
2023-06-09T11:05:23.275Z,74.89
2023-06-09T11:07:53.579Z,74.75
2023-06-09T11:10:30.518Z,74.84
2023-06-09T11:12:59.225Z,74.94
2023-06-09T11:15:58.887Z,74.83
2023-06-09T11:18:29.698Z,74.83
2023-06-09T11:21:13.099Z,74.97
2023-06-09T11:24:02.560Z,75.16
2023-06-09T11:26:31.897Z,75.10
2023-06-09T11:29:00.434Z,75.14
2023-06-09T11:31:29.356Z,75.18
2023-06-09T11:33:59.380Z,75.01
2023-06-09T11:36:31.738Z,74.92
2023-06-09T11:39:08.560Z,74.86
2023-06-09T11:41:36.860Z,74.91
2023-06-09T11:44:05.190Z,74.51
2023-06-09T11:46:36.970Z,74.75
2023-06-09T11:49:08.947Z,74.30
2023-06-09T11:51:59.581Z,74.46
2023-06-09T11:54:49.038Z,74.33
2023-06-09T11:57:20.528Z,74.36
2023-06-09T11:59:48.825Z,74.17
2023-06-09T12:02:19.208Z,74.05
2023-06-09T12:04:50.292Z,73.96
2023-06-09T12:07:20.059Z,73.88
2023-06-09T12:09:59.402Z,73.82
2023-06-09T12:12:27.582Z,73.74
2023-06-09T12:14:55.789Z,73.79
2023-06-09T12:17:24.992Z,73.79
2023-06-09T12:19:57.349Z,73.69
2023-06-09T12:22:25.607Z,73.67
2023-06-09T12:24:53.676Z,73.56
2023-06-09T12:27:24.011Z,73.53
2023-06-09T12:29:53.819Z,73.48
2023-06-09T12:32:25.454Z,73.48
2023-06-09T12:35:02.635Z,73.45
2023-06-09T12:37:38.142Z,73.58
2023-06-09T12:40:10.424Z,73.45
2023-06-09T12:42:48.925Z,73.27
2023-06-09T12:45:17.199Z,73.20
2023-06-09T12:47:49.597Z,73.10
2023-06-09T12:50:19.224Z,73.29
2023-06-09T12:52:47.411Z,73.23
2023-06-09T12:55:17.967Z,73.05
2023-06-09T12:57:46.205Z,73.10
2023-06-09T13:00:21.850Z,73.00
2023-06-09T13:02:51.820Z,73.07
2023-06-09T13:05:22.656Z,73.08
2023-06-09T13:07:50.888Z,73.11
2023-06-09T13:10:19.010Z,72.67
2023-06-09T13:12:51.856Z,72.99
2023-06-09T13:15:21.331Z,72.70
2023-06-09T13:17:49.690Z,72.78
2023-06-09T13:20:23.323Z,72.51
2023-06-09T13:22:52.896Z,72.57
2023-06-09T13:25:21.172Z,72.36
2023-06-09T13:27:49.295Z,72.46
2023-06-09T13:30:17.425Z,72.64
2023-06-09T13:32:45.636Z,72.41
2023-06-09T13:35:15.376Z,72.56
2023-06-09T13:37:45.050Z,72.50
2023-06-09T13:40:13.657Z,72.45
2023-06-09T13:42:43.660Z,72.28
2023-06-09T13:45:12.056Z,72.05
2023-06-09T13:47:40.297Z,72.30
2023-06-09T13:50:09.135Z,72.05
2023-06-09T13:52:38.906Z,72.13
2023-06-09T13:55:09.801Z,71.91
2023-06-09T13:57:38.666Z,72.16
2023-06-09T14:00:08.386Z,71.89
2023-06-09T14:02:37.221Z,72.18
2023-06-09T14:05:06.092Z,72.00
2023-06-09T14:07:34.573Z,71.65
2023-06-09T14:10:04.419Z,71.76
2023-06-09T14:12:34.192Z,71.71
2023-06-09T14:15:02.844Z,71.70
2023-06-09T14:17:31.113Z,71.40
2023-06-09T14:19:59.333Z,71.61
2023-06-09T14:22:27.444Z,71.58
2023-06-09T14:24:55.653Z,71.31
2023-06-09T14:27:23.744Z,71.13
2023-06-09T14:29:53.393Z,71.11
2023-06-09T14:32:21.613Z,71.10
2023-06-09T14:34:49.837Z,70.93
2023-06-09T14:37:18.030Z,70.96
2023-06-09T14:39:46.186Z,70.63
2023-06-09T14:42:14.384Z,70.56
2023-06-09T14:44:42.524Z,70.59
2023-06-09T14:47:12.009Z,70.49
2023-06-09T14:49:40.545Z,70.45
2023-06-09T14:52:08.901Z,70.61
2023-06-09T14:54:37.610Z,70.23
2023-06-09T14:57:06.947Z,70.12
2023-06-09T14:59:35.273Z,70.05
2023-06-09T15:02:03.378Z,70.26
2023-06-09T15:04:32.840Z,70.12
2023-06-09T15:07:01.002Z,70.02
2023-06-09T15:09:29.134Z,69.61
2023-06-09T15:11:57.306Z,69.72
2023-06-09T15:14:25.393Z,69.74
2023-06-09T15:16:53.536Z,69.80
2023-06-09T15:19:21.665Z,69.58
2023-06-09T15:21:56.137Z,69.50
2023-06-09T15:24:32.369Z,69.18
2023-06-09T15:27:00.444Z,69.51
2023-06-09T15:29:30.024Z,69.29
2023-06-09T15:31:58.595Z,69.19
2023-06-09T15:34:26.702Z,69.28
2023-06-09T15:36:56.222Z,68.90
2023-06-09T15:39:24.358Z,68.43
2023-06-09T15:41:52.521Z,68.29
2023-06-09T15:44:20.602Z,68.40
2023-06-09T15:46:48.778Z,68.01
2023-06-09T15:49:16.945Z,67.84
2023-06-09T15:51:45.055Z,67.14
2023-06-09T15:54:14.602Z,67.41
2023-06-09T15:56:42.852Z,67.26
2023-06-09T15:59:10.971Z,66.80
2023-06-09T16:01:39.194Z,67.06
2023-06-09T16:04:07.911Z,66.71
2023-06-09T16:06:36.109Z,67.16
2023-06-09T16:09:06.602Z,66.71
2023-06-09T16:11:36.379Z,66.98
2023-06-09T16:14:04.455Z,66.88
2023-06-09T16:16:32.645Z,66.84
2023-06-09T16:19:01.071Z,66.62
2023-06-09T16:21:29.217Z,66.63
2023-06-09T16:23:57.440Z,66.34
2023-06-09T16:26:28.319Z,65.93
2023-06-09T16:28:57.963Z,66.05
2023-06-09T16:31:27.136Z,66.16
2023-06-09T16:33:55.532Z,66.13
2023-06-09T16:36:23.701Z,66.35
2023-06-09T16:38:51.860Z,66.13
2023-06-09T16:41:19.951Z,65.79
2023-06-09T16:43:48.206Z,65.79
2023-06-09T16:46:18.025Z,65.94
2023-06-09T16:48:46.323Z,65.91
2023-06-09T16:51:14.946Z,65.80
2023-06-09T16:53:43.237Z,65.78
2023-06-09T16:56:11.409Z,65.58
2023-06-09T16:58:39.592Z,65.56
2023-06-09T17:01:07.767Z,65.73
2023-06-09T17:03:37.659Z,65.55
2023-06-09T17:06:06.069Z,66.02
2023-06-09T17:08:34.814Z,65.76
2023-06-09T17:11:03.114Z,65.69
2023-06-09T17:13:31.289Z,65.84
2023-06-09T17:16:00.727Z,65.64
2023-06-09T17:18:28.823Z,65.72
2023-06-09T17:20:58.367Z,65.68
2023-06-09T17:23:26.874Z,64.87
2023-06-09T17:25:55.004Z,65.30
2023-06-09T17:28:23.449Z,65.60
2023-06-09T17:30:51.689Z,65.91
2023-06-09T17:33:20.696Z,66.13
2023-06-09T17:35:49.404Z,64.78
2023-06-09T17:38:18.988Z,64.80
2023-06-09T17:40:47.614Z,65.02
2023-06-09T17:43:19.125Z,65.11
2023-06-09T17:45:48.227Z,65.26
2023-06-09T17:48:16.820Z,65.34
2023-06-09T17:50:45.393Z,64.89
2023-06-09T17:53:13.831Z,64.92
2023-06-09T17:55:43.536Z,64.97
2023-06-09T17:58:13.029Z,65.09
2023-06-09T18:00:41.288Z,64.79
2023-06-09T18:03:09.743Z,64.87
2023-06-09T18:05:38.222Z,64.70
2023-06-09T18:08:06.658Z,64.43
2023-06-09T18:10:34.955Z,64.62
2023-06-09T18:13:05.485Z,64.79
2023-06-09T18:15:34.100Z,64.77
2023-06-09T18:18:02.274Z,64.38
2023-06-09T18:20:30.484Z,64.21
2023-06-09T18:22:58.654Z,64.42
2023-06-09T18:25:28.296Z,64.58
2023-06-09T18:27:58.706Z,64.37
2023-06-09T18:30:29.728Z,64.20
2023-06-09T18:32:57.956Z,64.22
2023-06-09T18:35:26.269Z,64.51
2023-06-09T18:37:54.516Z,64.28
2023-06-09T18:40:22.666Z,64.36
2023-06-09T18:42:51.229Z,64.52
2023-06-09T18:45:19.548Z,64.05
2023-06-09T18:47:49.050Z,64.39
2023-06-09T18:50:20.520Z,64.53
2023-06-09T18:52:48.858Z,64.37
2023-06-09T18:55:17.378Z,64.54
2023-06-09T18:57:45.492Z,64.54
2023-06-09T19:00:14.753Z,64.72
2023-06-09T19:02:42.927Z,64.81
2023-06-09T19:05:13.114Z,64.66
2023-06-09T19:07:41.484Z,64.87
2023-06-09T19:10:10.430Z,64.85
2023-06-09T19:12:39.199Z,64.76
2023-06-09T19:15:08.560Z,64.80
2023-06-09T19:17:37.065Z,64.87
2023-06-09T19:20:06.068Z,65.17
2023-06-09T19:22:35.778Z,64.98
2023-06-09T19:25:04.139Z,64.99
2023-06-09T19:27:32.423Z,65.24
2023-06-09T19:30:00.603Z,65.61
2023-06-09T19:32:29.325Z,65.37
2023-06-09T19:34:57.793Z,65.89
2023-06-09T19:37:26.028Z,65.94
2023-06-09T19:39:56.075Z,66.28
2023-06-09T19:42:25.573Z,66.14
2023-06-09T19:44:53.968Z,66.54
2023-06-09T19:47:22.723Z,66.36
2023-06-09T19:49:51.347Z,66.72
2023-06-09T19:52:19.561Z,66.73
2023-06-09T19:54:54.259Z,66.97
2023-06-09T19:57:23.916Z,66.85
2023-06-09T19:59:52.161Z,67.18
2023-06-09T20:02:20.608Z,67.42
2023-06-09T20:04:49.042Z,67.71
2023-06-09T20:07:17.260Z,67.34
2023-06-09T20:09:45.378Z,67.75
2023-06-09T20:12:13.490Z,67.78
2023-06-09T20:14:42.943Z,67.71
2023-06-09T20:17:11.110Z,68.00
2023-06-09T20:19:40.786Z,67.86
2023-06-09T20:22:10.726Z,67.91
2023-06-09T20:24:38.839Z,68.47
2023-06-09T20:27:07.745Z,68.06
2023-06-09T20:29:36.174Z,68.24
2023-06-09T20:32:06.469Z,68.29
2023-06-09T20:34:34.620Z,68.46
2023-06-09T20:37:03.861Z,68.54
2023-06-09T20:39:31.913Z,68.46
2023-06-09T20:42:00.114Z,68.49
2023-06-09T20:44:28.304Z,68.69
2023-06-09T20:46:56.903Z,68.56
2023-06-09T20:49:26.409Z,68.51
2023-06-09T20:51:54.542Z,68.70
2023-06-09T20:54:23.575Z,68.59
2023-06-09T20:56:51.725Z,68.60
2023-06-09T20:59:20.014Z,68.75
2023-06-09T21:01:48.230Z,68.66
2023-06-09T21:04:16.981Z,68.90
2023-06-09T21:06:47.246Z,68.66
2023-06-09T21:09:15.442Z,68.80
2023-06-09T21:11:44.431Z,68.75
2023-06-09T21:14:12.544Z,68.92
2023-06-09T21:16:43.982Z,69.01
2023-06-09T21:19:12.717Z,69.03
2023-06-09T21:21:40.847Z,68.80
2023-06-09T21:24:10.566Z,69.07
2023-06-09T21:26:38.734Z,69.06
2023-06-09T21:29:06.859Z,69.17
2023-06-09T21:31:35.325Z,69.10
2023-06-09T21:34:04.523Z,69.28
2023-06-09T21:36:32.833Z,69.12
2023-06-09T21:39:01.153Z,69.18
2023-06-09T21:41:30.608Z,69.08
2023-06-09T21:43:58.660Z,69.46
2023-06-09T21:46:26.852Z,69.20
2023-06-09T21:48:55.154Z,69.42
2023-06-09T21:51:23.231Z,69.25
2023-06-09T21:53:51.277Z,69.38
2023-06-09T21:56:19.342Z,69.35
2023-06-09T21:58:48.924Z,69.61
2023-06-09T22:01:19.570Z,69.75
2023-06-09T22:03:47.901Z,69.66
2023-06-09T22:06:16.220Z,69.58
2023-06-09T22:08:44.411Z,69.63
2023-06-09T22:11:12.644Z,69.86
2023-06-09T22:13:41.396Z,69.67
2023-06-09T22:16:11.039Z,69.76
2023-06-09T22:18:39.168Z,69.78
2023-06-09T22:21:07.257Z,69.66
2023-06-09T22:23:35.484Z,69.90
2023-06-09T22:26:03.690Z,69.80
2023-06-09T22:28:31.772Z,69.80
2023-06-09T22:30:59.941Z,69.89
2023-06-09T22:33:29.636Z,69.94
2023-06-09T22:35:57.766Z,70.25
2023-06-09T22:38:26.000Z,70.10
2023-06-09T22:40:54.099Z,70.19
2023-06-09T22:43:22.211Z,70.23
2023-06-09T22:45:51.144Z,70.37
2023-06-09T22:48:20.880Z,70.28
2023-06-09T22:50:50.354Z,70.48
2023-06-09T22:53:18.428Z,70.46
2023-06-09T22:55:46.738Z,70.43
2023-06-09T22:58:14.906Z,70.31
2023-06-09T23:00:42.990Z,70.49
2023-06-09T23:03:11.221Z,70.70
2023-06-09T23:05:41.790Z,70.69
2023-06-09T23:08:11.397Z,70.74
2023-06-09T23:10:39.537Z,70.66
2023-06-09T23:13:07.922Z,70.67
2023-06-09T23:15:36.572Z,70.87
2023-06-09T23:18:06.138Z,70.76
2023-06-09T23:20:36.189Z,70.80
2023-06-09T23:23:04.616Z,70.82
2023-06-09T23:25:34.637Z,70.90
2023-06-09T23:28:03.143Z,70.85
2023-06-09T23:30:32.010Z,70.75
2023-06-09T23:33:00.174Z,70.74
2023-06-09T23:35:28.277Z,70.74
2023-06-09T23:37:56.404Z,70.73
2023-06-09T23:40:24.602Z,70.77
2023-06-09T23:42:54.074Z,70.67
2023-06-09T23:45:22.172Z,70.58
2023-06-09T23:47:50.471Z,70.75
2023-06-09T23:50:18.623Z,70.73
2023-06-09T23:52:47.433Z,70.68
2023-06-09T23:55:15.799Z,70.70
2023-06-09T23:57:43.861Z,70.69
